Time;durP1;ratioP1;P1;durP2;ratioP2;P2;SDS_P1;SDS_P2;PMS_P1;PMS_P2;Temp;Humidity;BMP_temperature;BMP_pressure;BME280_temperature;BME280_humidity;BME280_pressure;Samples;Min_cycle;Max_cycle;Signal;HPM_P1;HPM_P2
2020/12/20 00:01:44;;;;;;;4.13;1.77;;;;;;;5.56;78.77;99429.09;5044694;28;20049;-50
2020/12/20 00:04:31;;;;;;;6.10;2.00;;;;;;;5.58;78.64;99446.00;5041667;28;20135;-52
2020/12/20 00:07:36;;;;;;;5.68;2.20;;;;;;;5.55;78.84;99433.78;5047783;28;20218;-54
2020/12/20 00:10:24;;;;;;;5.95;1.50;;;;;;;5.54;78.86;99429.41;5036047;28;20112;-52
2020/12/20 00:13:11;;;;;;;2.83;1.35;;;;;;;5.53;78.99;99442.34;5061896;28;20127;-49
2020/12/20 00:15:57;;;;;;;5.43;1.35;;;;;;;5.53;78.89;99441.56;5070921;28;20417;-54
2020/12/20 00:18:44;;;;;;;3.70;1.52;;;;;;;5.54;78.96;99449.44;5031399;28;20151;-52
2020/12/20 00:21:31;;;;;;;4.57;2.33;;;;;;;5.52;78.95;99459.16;5035681;28;20046;-51
2020/12/20 00:24:18;;;;;;;2.03;1.55;;;;;;;5.51;78.94;99447.38;5054215;28;20213;-53
2020/12/20 00:27:06;;;;;;;5.82;1.15;;;;;;;5.53;79.06;99458.81;5054837;28;20392;-53
2020/12/20 00:29:52;;;;;;;3.53;1.15;;;;;;;5.53;79.00;99467.03;5053420;28;20403;-56
2020/12/20 00:32:39;;;;;;;6.10;1.50;;;;;;;5.53;79.08;99458.81;5044500;28;20124;-55
2020/12/20 00:35:26;;;;;;;4.38;1.05;;;;;;;5.54;78.95;99463.16;5033503;28;20179;-54
2020/12/20 00:38:12;;;;;;;4.88;1.88;;;;;;;5.56;79.20;99467.53;5057745;28;20053;-57
2020/12/20 00:40:59;;;;;;;3.67;1.50;;;;;;;5.57;78.94;99467.16;5074988;28;20494;-55
2020/12/20 00:43:45;;;;;;;1.70;0.95;;;;;;;5.58;79.01;99481.69;5055877;28;20128;-51
2020/12/20 00:46:36;;;;;;;7.05;1.20;;;;;;;5.58;78.95;99473.47;5035401;28;20124;-55
2020/12/20 00:49:39;;;;;;;5.30;1.58;;;;;;;5.55;79.20;99474.94;5058317;28;20060;-54
2020/12/20 00:52:26;;;;;;;4.18;1.13;;;;;;;5.54;79.42;99481.56;5073334;28;20101;-52
2020/12/20 00:55:13;;;;;;;2.80;1.00;;;;;;;5.54;79.45;99470.59;5074263;28;20056;-50
2020/12/20 00:57:59;;;;;;;1.95;0.77;;;;;;;5.57;79.26;99482.81;5074086;28;20161;-52
2020/12/20 01:00:46;;;;;;;2.95;1.05;;;;;;;5.59;79.64;99488.81;5073616;28;20044;-51
2020/12/20 01:03:33;;;;;;;4.75;0.90;;;;;;;5.61;79.29;99486.50;5075259;28;20048;-54
2020/12/20 01:06:22;;;;;;;4.32;1.73;;;;;;;5.62;79.31;99493.56;5059551;28;20090;-50
2020/12/20 01:09:09;;;;;;;2.35;1.23;;;;;;;5.63;79.48;99486.97;5056026;28;20036;-52
2020/12/20 01:11:57;;;;;;;3.03;1.17;;;;;;;5.66;79.45;99489.03;5057252;28;20051;-51
2020/12/20 01:14:44;;;;;;;3.33;1.63;;;;;;;5.66;79.47;99497.25;5074062;28;20040;-50
2020/12/20 01:17:30;;;;;;;3.17;1.25;;;;;;;5.66;79.25;99494.50;5072866;28;20036;-51
2020/12/20 01:20:17;;;;;;;8.98;1.75;;;;;;;5.66;79.37;99492.56;5059455;28;20145;-50
2020/12/20 01:23:03;;;;;;;5.85;1.38;;;;;;;5.66;79.64;99489.03;5072817;28;20128;-49
2020/12/20 01:25:50;;;;;;;5.57;1.55;;;;;;;5.66;79.30;99480.78;5058074;28;20124;-49
2020/12/20 01:28:37;;;;;;;7.55;1.50;;;;;;;5.66;79.23;99491.78;5069479;28;20135;-50
2020/12/20 01:31:24;;;;;;;5.28;1.23;;;;;;;5.66;79.51;99494.50;5072722;28;20040;-52
2020/12/20 01:34:11;;;;;;;4.53;0.80;;;;;;;5.66;79.33;99497.25;5073066;28;20044;-50
2020/12/20 01:37:00;;;;;;;3.00;0.90;;;;;;;5.69;79.33;99493.84;5072356;28;20517;-51
2020/12/20 01:39:47;;;;;;;2.17;0.60;;;;;;;5.68;79.24;99500.47;5072571;28;20131;-52
2020/12/20 01:42:33;;;;;;;6.20;2.38;;;;;;;5.68;79.50;99500.47;5075468;28;20048;-52
2020/12/20 01:45:21;;;;;;;4.03;0.75;;;;;;;5.68;79.42;99498.53;5092566;28;20524;-53
2020/12/20 01:48:08;;;;;;;5.18;0.63;;;;;;;5.68;79.31;99508.69;5093242;28;20179;-49
2020/12/20 01:50:55;;;;;;;5.72;1.65;;;;;;;5.69;79.57;99505.63;5093168;28;20134;-52
2020/12/20 01:53:42;;;;;;;6.15;2.08;;;;;;;5.70;79.39;99500.91;5093944;28;20059;-48
2020/12/20 01:56:28;;;;;;;4.95;0.93;;;;;;;5.72;79.09;99509.63;5077524;28;20036;-49
2020/12/20 01:59:15;;;;;;;4.90;0.93;;;;;;;5.72;79.17;99515.91;5057305;28;20041;-48
2020/12/20 02:02:02;;;;;;;4.22;0.90;;;;;;;5.75;79.07;99511.66;5058433;28;20048;-52
2020/12/20 02:04:49;;;;;;;1.95;1.40;;;;;;;5.76;79.26;99521.50;5073308;28;20123;-50
2020/12/20 02:07:35;;;;;;;4.22;0.80;;;;;;;5.74;79.27;99524.63;5072936;28;20131;-49
2020/12/20 02:10:23;;;;;;;7.57;1.08;;;;;;;5.73;79.25;99522.19;5071762;28;20063;-51
2020/12/20 02:13:09;;;;;;;4.05;0.93;;;;;;;5.71;79.18;99524.47;5071885;28;20036;-52
2020/12/20 02:15:56;;;;;;;1.23;0.63;;;;;;;5.70;79.05;99539.34;5065079;28;20433;-54
2020/12/20 02:18:43;;;;;;;5.30;0.82;;;;;;;5.70;79.04;99540.16;5053077;28;20072;-52
2020/12/20 02:21:29;;;;;;;5.82;1.08;;;;;;;5.71;78.76;99552.75;5052966;28;20128;-52
2020/12/20 02:24:16;;;;;;;6.97;1.20;;;;;;;5.70;79.16;99551.13;5053002;28;20129;-52
2020/12/20 02:27:03;;;;;;;2.97;0.65;;;;;;;5.70;79.17;99559.38;5053386;28;20461;-56
2020/12/20 02:29:54;;;;;;;3.85;0.70;;;;;;;5.69;78.76;99565.22;5050271;28;20041;-51
2020/12/20 02:32:40;;;;;;;6.85;0.90;;;;;;;5.69;79.19;99565.22;5058095;28;20139;-52
2020/12/20 02:35:27;;;;;;;2.95;0.80;;;;;;;5.67;79.23;99557.31;5071663;28;20486;-54
2020/12/20 02:38:14;;;;;;;5.50;0.80;;;;;;;5.67;78.99;99562.81;5058493;28;20051;-53
2020/12/20 02:41:01;;;;;;;4.07;1.02;;;;;;;5.67;79.24;99572.97;5072133;28;20520;-51
2020/12/20 02:43:48;;;;;;;7.15;0.77;;;;;;;5.67;79.33;99587.50;5071898;28;20143;-53
2020/12/20 02:46:35;;;;;;;7.95;1.10;;;;;;;5.67;79.49;99583.97;5072337;28;20043;-54
2020/12/20 02:49:21;;;;;;;7.95;1.95;;;;;;;5.68;79.18;99596.56;5070824;28;20048;-53
2020/12/20 02:52:08;;;;;;;5.78;1.00;;;;;;;5.68;79.55;99586.38;5072320;28;20056;-55
2020/12/20 02:54:54;;;;;;;6.65;0.85;;;;;;;5.72;79.63;99598.28;5057554;28;20045;-56
2020/12/20 02:57:41;;;;;;;5.43;1.67;;;;;;;5.73;79.29;99599.09;5070748;28;20033;-51
2020/12/20 03:00:28;;;;;;;5.22;0.73;;;;;;;5.75;79.34;99602.28;5071864;28;20127;-52
2020/12/20 03:03:14;;;;;;;8.90;2.15;;;;;;;5.75;79.12;99607.78;5071675;28;20131;-53
2020/12/20 03:06:01;;;;;;;3.10;1.00;;;;;;;5.77;79.20;99613.75;5070090;28;20562;-54
2020/12/20 03:08:47;;;;;;;6.90;1.45;;;;;;;5.81;79.03;99617.41;5052458;28;20459;-52
2020/12/20 03:11:34;;;;;;;3.65;1.33;;;;;;;5.84;79.21;99605.75;5051755;28;20118;-54
2020/12/20 03:14:20;;;;;;;10.00;1.23;;;;;;;5.83;79.11;99620.59;5071866;28;20056;-56
2020/12/20 03:17:08;;;;;;;2.88;0.73;;;;;;;5.85;79.24;99601.91;5072867;28;20063;-51
2020/12/20 03:19:54;;;;;;;4.65;1.58;;;;;;;5.87;79.28;99610.59;5070689;28;20175;-54
2020/12/20 03:22:41;;;;;;;6.22;1.23;;;;;;;5.90;79.27;99620.91;5071224;28;20195;-51
2020/12/20 03:25:27;;;;;;;5.57;1.83;;;;;;;5.94;79.31;99622.59;5038866;28;20418;-52
2020/12/20 03:28:14;;;;;;;7.15;1.45;;;;;;;5.94;78.97;99619.06;5060209;28;20045;-50
2020/12/20 03:31:01;;;;;;;3.08;0.85;;;;;;;5.95;78.96;99620.66;5066253;28;20056;-51
2020/12/20 03:33:47;;;;;;;5.50;0.95;;;;;;;5.92;78.96;99619.41;5072182;28;20099;-53
2020/12/20 03:36:34;;;;;;;5.85;0.88;;;;;;;5.91;79.27;99630.72;5072023;28;20097;-53
2020/12/20 03:39:20;;;;;;;3.33;1.00;;;;;;;5.90;78.72;99637.38;5071646;28;20049;-50
2020/12/20 03:42:07;;;;;;;5.18;0.80;;;;;;;5.91;79.17;99630.72;5072041;28;20143;-52
2020/12/20 03:44:54;;;;;;;5.40;0.82;;;;;;;5.95;79.31;99629.72;5056740;28;20045;-55
2020/12/20 03:47:41;;;;;;;7.05;1.27;;;;;;;5.98;79.13;99639.22;5071485;28;20577;-53
2020/12/20 03:50:27;;;;;;;4.38;0.90;;;;;;;6.00;79.10;99647.91;5070146;28;20438;-51
2020/12/20 03:53:14;;;;;;;3.90;1.48;;;;;;;6.04;79.42;99649.63;5072963;28;20609;-53
2020/12/20 03:56:00;;;;;;;6.22;1.27;;;;;;;6.10;79.58;99652.97;5075088;28;20098;-53
2020/12/20 03:58:47;;;;;;;3.55;0.98;;;;;;;6.13;79.05;99641.28;5073896;28;20053;-53
2020/12/20 04:01:33;;;;;;;2.83;1.45;;;;;;;6.16;79.35;99668.09;5075338;28;20135;-54
2020/12/20 04:04:20;;;;;;;6.90;1.30;;;;;;;6.16;79.26;99662.59;5074027;28;20123;-53
2020/12/20 04:07:10;;;;;;;3.83;1.92;;;;;;;6.11;79.12;99668.31;5074733;28;20052;-55
2020/12/20 04:09:56;;;;;;;6.03;1.00;;;;;;;6.05;79.02;99658.69;5075822;28;20062;-53
2020/12/20 04:12:43;;;;;;;10.68;1.10;;;;;;;6.00;79.14;99665.22;5083567;28;20505;-50
2020/12/20 04:15:32;;;;;;;4.47;0.85;;;;;;;5.94;79.22;99663.00;5081976;28;20049;-50
2020/12/20 04:18:19;;;;;;;5.97;1.35;;;;;;;5.91;79.33;99667.25;5073778;28;20418;-54
2020/12/20 04:21:06;;;;;;;9.15;1.13;;;;;;;5.89;79.46;99665.97;5074717;28;20044;-54
2020/12/20 04:23:53;;;;;;;15.65;4.10;;;;;;;5.86;79.04;99661.16;5075476;28;20075;-51
2020/12/20 04:26:39;;;;;;;9.13;2.05;;;;;;;5.82;79.18;99669.25;5075503;28;20127;-51
2020/12/20 04:29:26;;;;;;;6.82;1.58;;;;;;;5.83;79.46;99670.03;5094849;28;20494;-55
2020/12/20 04:32:12;;;;;;;4.10;1.20;;;;;;;5.81;79.60;99672.34;5073646;28;20123;-56
2020/12/20 04:34:59;;;;;;;6.22;1.25;;;;;;;5.78;79.41;99673.00;5053964;28;20502;-55
2020/12/20 04:37:46;;;;;;;5.60;1.30;;;;;;;5.75;79.68;99665.44;5054616;28;20045;-52
2020/12/20 04:40:32;;;;;;;6.60;1.30;;;;;;;5.77;79.56;99671.41;5054170;28;20135;-55
2020/12/20 04:43:22;;;;;;;4.35;1.35;;;;;;;5.75;79.89;99679.16;5074862;28;20044;-52
2020/12/20 04:46:09;;;;;;;4.90;0.80;;;;;;;5.74;79.98;99681.13;5080271;28;20044;-54
2020/12/20 04:48:56;;;;;;;7.60;1.33;;;;;;;5.73;79.70;99678.72;5078099;28;20049;-54
2020/12/20 04:51:43;;;;;;;4.63;1.00;;;;;;;5.72;79.66;99677.91;5068935;28;20391;-52
2020/12/20 04:54:32;;;;;;;7.10;1.27;;;;;;;5.70;79.81;99665.66;5094707;28;20040;-54
2020/12/20 04:57:20;;;;;;;4.20;1.25;;;;;;;5.71;79.95;99675.50;5090576;28;20520;-55
2020/12/20 05:00:06;;;;;;;5.03;0.90;;;;;;;5.68;79.85;99687.97;5059369;28;20048;-54
2020/12/20 05:02:53;;;;;;;13.75;2.63;;;;;;;5.66;80.17;99692.19;5073799;28;20055;-53
2020/12/20 05:05:40;;;;;;;2.58;1.13;;;;;;;5.63;79.71;99688.19;5070894;28;20041;-54
2020/12/20 05:08:26;;;;;;;6.53;1.25;;;;;;;5.64;79.96;99680.75;5073231;28;20052;-49
2020/12/20 05:11:44;;;;;;;4.75;0.80;;;;;;;5.64;79.93;99694.50;5067592;28;20567;-52
2020/12/20 05:14:33;;;;;;;4.85;0.98;;;;;;;5.63;79.52;99684.63;5073032;28;20032;-50
2020/12/20 05:17:19;;;;;;;5.53;1.20;;;;;;;5.60;79.89;99688.06;5053735;28;20100;-54
2020/12/20 05:20:07;;;;;;;5.53;0.93;;;;;;;5.60;80.40;99693.53;5054342;28;20387;-52
2020/12/20 05:22:56;;;;;;;4.57;1.33;;;;;;;5.60;79.74;99686.13;5060958;28;20402;-51
2020/12/20 05:25:43;;;;;;;7.22;1.45;;;;;;;5.60;80.03;99685.31;5058634;28;20505;-54
2020/12/20 05:28:30;;;;;;;6.72;1.25;;;;;;;5.60;80.06;99699.84;5073884;28;20036;-52
2020/12/20 05:31:16;;;;;;;6.95;2.60;;;;;;;5.60;79.97;99694.34;5073016;28;20171;-51
2020/12/20 05:34:04;;;;;;;2.45;0.93;;;;;;;5.59;80.31;99700.19;5072320;28;20462;-54
2020/12/20 05:36:50;;;;;;;7.18;1.50;;;;;;;5.60;80.39;99691.59;5073811;28;20460;-53
2020/12/20 05:39:38;;;;;;;4.93;1.13;;;;;;;5.62;80.07;99689.31;5071869;28;20425;-56
2020/12/20 05:42:25;;;;;;;2.75;0.70;;;;;;;5.62;80.15;99696.75;5052450;28;20128;-53
2020/12/20 05:45:12;;;;;;;9.68;2.17;;;;;;;5.60;80.06;99694.34;5053292;28;20067;-53
2020/12/20 05:48:12;;;;;;;12.30;2.92;;;;;;;5.58;80.39;99693.09;5053197;28;20052;-54
2020/12/20 05:51:01;;;;;;;3.13;0.95;;;;;;;5.57;80.17;99699.72;5053677;28;20037;-51
2020/12/20 05:53:47;;;;;;;6.72;1.67;;;;;;;5.57;80.39;99699.72;5053449;28;20049;-52
2020/12/20 05:56:34;;;;;;;9.27;2.03;;;;;;;5.54;80.42;99702.00;5054585;28;20124;-50
2020/12/20 05:59:21;;;;;;;10.32;1.33;;;;;;;5.55;80.41;99711.03;5058608;28;20052;-53
2020/12/20 06:02:08;;;;;;;6.53;0.93;;;;;;;5.56;80.72;99709.09;5073246;28;20056;-52
2020/12/20 06:04:55;;;;;;;5.97;1.50;;;;;;;5.54;80.89;99706.69;5072807;28;20037;-55
2020/12/20 06:07:49;;;;;;;10.80;2.42;;;;;;;5.54;80.56;99704.75;5052319;28;20045;-51
2020/12/20 06:10:39;;;;;;;6.47;0.95;;;;;;;5.54;80.72;99712.97;5058833;28;20109;-48
2020/12/20 06:13:26;;;;;;;12.65;1.17;;;;;;;5.52;80.77;99709.78;5069428;28;20037;-52
2020/12/20 06:16:16;;;;;;;9.55;1.40;;;;;;;5.53;80.54;99705.09;5044498;28;20500;-52
2020/12/20 06:19:08;;;;;;;7.35;1.42;;;;;;;5.51;80.98;99712.84;5051724;28;20051;-54
2020/12/20 06:22:01;;;;;;;8.20;1.33;;;;;;;5.50;80.66;99712.06;5052676;28;20049;-52
2020/12/20 06:24:50;;;;;;;10.60;1.42;;;;;;;5.49;80.87;99710.44;5052099;28;20079;-51
2020/12/20 06:27:36;;;;;;;7.53;1.67;;;;;;;5.49;80.86;99715.13;5060701;28;20131;-52
2020/12/20 06:30:23;;;;;;;9.18;1.23;;;;;;;5.49;81.01;99715.94;5070393;28;20127;-54
2020/12/20 06:33:24;;;;;;;7.07;1.35;;;;;;;5.50;80.74;99725.78;5070321;28;20047;-50
2020/12/20 06:36:13;;;;;;;6.32;1.80;;;;;;;5.52;80.76;99718.00;5073112;28;20049;-54
2020/12/20 06:38:59;;;;;;;4.35;1.05;;;;;;;5.54;80.94;99723.97;5073634;28;20056;-51
2020/12/20 06:41:51;;;;;;;8.85;2.45;;;;;;;5.54;80.60;99729.44;5071898;28;20413;-53
2020/12/20 06:44:38;;;;;;;6.63;1.50;;;;;;;5.57;80.31;99738.94;5072182;28;20048;-50
2020/12/20 06:47:43;;;;;;;3.35;1.05;;;;;;;5.58;80.56;99748.00;5071668;28;20037;-53
2020/12/20 06:50:36;;;;;;;10.90;1.85;;;;;;;5.58;80.55;99757.03;5067170;28;20052;-54
2020/12/20 06:53:44;;;;;;;8.23;2.28;;;;;;;5.60;80.38;99751.19;5069932;28;20129;-53
2020/12/20 06:56:32;;;;;;;2.67;0.93;;;;;;;5.60;80.46;99748.47;5072463;28;20045;-50
2020/12/20 06:59:43;;;;;;;6.50;1.10;;;;;;;5.58;80.34;99753.50;5058536;28;20178;-52
2020/12/20 07:02:47;;;;;;;6.07;1.08;;;;;;;5.58;80.50;99770.78;5072130;28;20033;-49
2020/12/20 07:05:35;;;;;;;3.25;0.73;;;;;;;5.59;80.22;99766.09;5044462;28;20049;-50
2020/12/20 07:08:30;;;;;;;3.78;0.82;;;;;;;5.57;80.63;99782.06;5052572;28;20052;-52
2020/12/20 07:11:20;;;;;;;7.07;1.77;;;;;;;5.57;80.33;99782.06;5052229;28;20132;-52
2020/12/20 07:14:21;;;;;;;7.25;0.80;;;;;;;5.56;80.37;99783.22;5071326;28;20040;-49
2020/12/20 07:17:25;;;;;;;7.72;1.38;;;;;;;5.54;80.54;99789.84;5071824;28;20510;-50
2020/12/20 07:20:12;;;;;;;12.82;2.15;;;;;;;5.56;80.22;99786.75;5071765;28;20044;-49
2020/12/20 07:22:58;;;;;;;6.53;1.60;;;;;;;5.54;80.31;99786.28;5040215;28;20103;-49
2020/12/20 07:25:47;;;;;;;6.80;0.88;;;;;;;5.52;80.32;99786.63;5051934;28;20074;-51
2020/12/20 07:28:34;;;;;;;8.60;1.33;;;;;;;5.49;80.35;99781.81;5070851;28;20043;-51
2020/12/20 07:31:21;;;;;;;6.18;1.40;;;;;;;5.49;80.66;99781.00;5074940;28;20064;-50
2020/12/20 07:34:08;;;;;;;5.18;1.48;;;;;;;5.46;80.51;99792.66;5075205;28;20075;-54
2020/12/20 07:36:56;;;;;;;10.57;1.30;;;;;;;5.44;80.75;99787.50;5076201;28;20044;-53
2020/12/20 07:39:42;;;;;;;5.93;1.13;;;;;;;5.46;80.41;99798.94;5060622;28;20484;-52
2020/12/20 07:42:29;;;;;;;6.82;0.88;;;;;;;5.43;80.61;99799.59;5066785;28;20113;-53
2020/12/20 07:45:15;;;;;;;7.03;1.05;;;;;;;5.41;80.82;99807.38;5096392;28;20509;-54
2020/12/20 07:48:03;;;;;;;7.22;2.17;;;;;;;5.38;80.55;99799.00;5086567;28;20051;-52
2020/12/20 07:50:49;;;;;;;9.07;3.15;;;;;;;5.37;80.81;99809.19;5075302;28;20127;-51
2020/12/20 07:53:43;;;;;;;6.00;1.50;;;;;;;5.35;80.74;99827.91;5075906;28;20055;-54
2020/12/20 07:56:32;;;;;;;9.55;1.17;;;;;;;5.33;80.68;99816.47;5075558;28;20182;-49
2020/12/20 07:59:19;;;;;;;4.10;1.05;;;;;;;5.31;80.77;99820.69;5077133;28;20056;-54
2020/12/20 08:02:06;;;;;;;6.38;1.73;;;;;;;5.32;80.87;99827.81;5073724;28;20198;-52
2020/12/20 08:05:06;;;;;;;6.68;3.70;;;;;;;5.30;80.73;99830.06;5074203;28;20127;-53
2020/12/20 08:07:53;;;;;;;7.40;1.77;;;;;;;5.30;80.90;99839.09;5075039;28;20174;-51
2020/12/20 08:10:40;;;;;;;9.95;1.05;;;;;;;5.30;80.75;99825.38;5075630;28;20052;-54
2020/12/20 08:13:26;;;;;;;7.82;1.20;;;;;;;5.29;80.63;99822.97;5062835;28;20043;-48
2020/12/20 08:16:20;;;;;;;7.45;1.48;;;;;;;5.28;80.81;99837.81;5062234;28;20052;-51
2020/12/20 08:19:14;;;;;;;20.05;3.22;;;;;;;5.28;80.95;99841.38;5074471;28;20051;-48
2020/12/20 08:22:14;;;;;;;7.13;1.02;;;;;;;5.28;81.04;99846.06;5074546;28;20512;-48
2020/12/20 08:25:11;;;;;;;11.70;2.55;;;;;;;5.28;81.11;99857.03;5074015;28;20048;-49
2020/12/20 08:27:57;;;;;;;8.05;1.20;;;;;;;5.33;80.81;99854.91;5074912;28;20107;-56
2020/12/20 08:30:44;;;;;;;3.85;1.23;;;;;;;5.36;81.01;99856.97;5060784;28;20128;-54
2020/12/20 08:33:33;;;;;;;12.35;1.88;;;;;;;5.36;80.74;99870.72;5049431;28;20049;-52
2020/12/20 08:36:21;;;;;;;9.02;2.10;;;;;;;5.36;80.86;99870.72;5039940;28;20049;-52
2020/12/20 08:39:08;;;;;;;7.13;1.17;;;;;;;5.32;80.82;99869.75;5054565;28;20059;-51
2020/12/20 08:42:06;;;;;;;14.05;2.08;;;;;;;5.28;80.93;99877.06;5057057;28;20406;-49
2020/12/20 08:44:53;;;;;;;4.43;1.27;;;;;;;5.30;81.05;99887.69;5075126;28;20402;-50
2020/12/20 08:47:40;;;;;;;4.15;1.55;;;;;;;5.30;80.92;99880.25;5067250;28;20130;-48
2020/12/20 08:50:30;;;;;;;10.93;1.77;;;;;;;5.30;80.94;99893.16;5074359;28;20044;-52
2020/12/20 08:53:17;;;;;;;5.13;1.88;;;;;;;5.28;81.07;99896.25;5073815;28;20036;-51
2020/12/20 08:56:09;;;;;;;6.68;1.55;;;;;;;5.27;80.89;99900.13;5074371;28;20051;-52
2020/12/20 08:59:00;;;;;;;6.38;2.03;;;;;;;5.28;80.70;99904.50;5063061;28;20562;-54
2020/12/20 09:01:46;;;;;;;7.70;1.38;;;;;;;5.27;81.00;99913.06;5051868;28;20048;-50
2020/12/20 09:04:38;;;;;;;8.38;1.30;;;;;;;5.30;80.91;99926.09;5052588;28;20174;-50
2020/12/20 09:07:34;;;;;;;10.93;3.10;;;;;;;5.32;80.44;99919.16;5059232;28;20433;-50
2020/12/20 09:10:28;;;;;;;8.45;1.77;;;;;;;5.36;80.49;99931.09;5066810;28;20051;-53
2020/12/20 09:13:24;;;;;;;8.02;1.17;;;;;;;5.36;80.30;99931.09;5074694;28;20060;-48
2020/12/20 09:16:11;;;;;;;10.50;1.83;;;;;;;5.40;80.32;99931.25;5075400;28;20487;-49
2020/12/20 09:18:57;;;;;;;11.40;1.15;;;;;;;5.42;80.46;99929.78;5074292;28;20415;-52
2020/12/20 09:21:48;;;;;;;10.40;1.50;;;;;;;5.44;80.05;99924.75;5066026;28;20190;-50
2020/12/20 09:24:46;;;;;;;7.32;1.20;;;;;;;5.45;80.12;99926.34;5074068;28;20082;-49
2020/12/20 09:27:33;;;;;;;9.50;1.17;;;;;;;5.48;79.89;99942.16;5059051;28;20048;-51
2020/12/20 09:30:33;;;;;;;8.88;2.45;;;;;;;5.50;80.01;99937.16;5060727;28;20527;-50
2020/12/20 09:33:31;;;;;;;6.20;1.92;;;;;;;5.56;79.94;99945.22;5062038;28;20040;-53
2020/12/20 09:36:23;;;;;;;8.15;1.40;;;;;;;5.59;79.84;99939.06;5069119;28;20059;-53
2020/12/20 09:39:12;;;;;;;7.40;2.40;;;;;;;5.63;79.94;99940.00;5069794;28;20077;-50
2020/12/20 09:41:59;;;;;;;12.93;2.15;;;;;;;5.64;79.72;99941.63;5071474;28;20269;-53
2020/12/20 09:44:45;;;;;;;3.97;1.15;;;;;;;5.65;79.77;99944.00;5052188;28;20134;-52
2020/12/20 09:47:41;;;;;;;11.05;2.85;;;;;;;5.67;79.90;99951.91;5068570;28;20056;-53
2020/12/20 09:50:28;;;;;;;8.67;1.20;;;;;;;5.69;79.64;99952.41;5071804;28;20135;-51
2020/12/20 09:53:15;;;;;;;9.20;3.45;;;;;;;5.73;79.87;99950.59;5071687;28;20045;-54
2020/12/20 09:56:02;;;;;;;5.72;1.10;;;;;;;5.76;79.68;99947.19;5072170;28;20063;-51
2020/12/20 09:58:49;;;;;;;4.35;1.40;;;;;;;5.78;79.58;99955.88;5069941;28;20048;-54
2020/12/20 10:01:35;;;;;;;3.58;1.10;;;;;;;5.81;79.45;99960.72;5072056;28;20099;-51
2020/12/20 10:04:22;;;;;;;8.25;1.00;;;;;;;5.86;79.24;99960.56;5038605;28;20134;-52
2020/12/20 10:07:08;;;;;;;4.47;1.25;;;;;;;5.90;79.50;99964.25;5090762;28;20131;-52
2020/12/20 10:09:55;;;;;;;6.50;1.67;;;;;;;5.95;79.13;99969.56;5092129;28;20051;-54
2020/12/20 10:12:42;;;;;;;5.22;2.15;;;;;;;5.99;79.13;99968.56;5061399;28;20048;-55
2020/12/20 10:15:28;;;;;;;16.15;3.78;;;;;;;6.00;79.03;99967.41;5045594;28;20132;-52
2020/12/20 10:18:15;;;;;;;5.47;1.00;;;;;;;6.00;79.27;99985.84;5052198;28;20045;-50
2020/12/20 10:21:02;;;;;;;5.68;1.33;;;;;;;6.01;78.62;99970.97;5069583;28;20097;-49
2020/12/20 10:23:49;;;;;;;6.57;1.75;;;;;;;6.02;78.80;99986.31;5070081;28;20055;-50
2020/12/20 10:26:35;;;;;;;5.95;1.05;;;;;;;6.02;78.64;99997.28;5068632;28;20044;-55
2020/12/20 10:29:22;;;;;;;11.02;1.00;;;;;;;6.04;78.76;100000.50;5058094;28;20045;-51
2020/12/20 10:32:10;;;;;;;4.22;0.90;;;;;;;6.03;78.53;99991.50;5063997;28;20037;-55
2020/12/20 10:34:56;;;;;;;3.15;0.90;;;;;;;6.03;78.24;99994.22;5081350;28;20036;-54
2020/12/20 10:37:43;;;;;;;5.00;0.82;;;;;;;6.05;77.98;99997.44;5061888;28;20102;-53
2020/12/20 10:40:29;;;;;;;4.80;1.65;;;;;;;6.05;78.20;100002.13;5065544;28;20041;-52
2020/12/20 10:43:16;;;;;;;5.72;0.77;;;;;;;6.05;78.32;99999.38;5071906;28;20051;-53
2020/12/20 10:46:02;;;;;;;10.20;0.70;;;;;;;6.02;78.12;100000.03;5058981;28;20040;-51
2020/12/20 10:48:49;;;;;;;4.53;0.90;;;;;;;6.05;78.53;100004.88;5067633;28;20533;-51
2020/12/20 10:51:36;;;;;;;6.00;1.08;;;;;;;6.05;78.09;100008.44;5076569;28;20179;-52
2020/12/20 10:54:29;;;;;;;5.60;0.70;;;;;;;6.07;78.12;100002.59;5069391;28;20052;-51
2020/12/20 10:57:15;;;;;;;5.75;1.15;;;;;;;6.06;78.14;99998.25;5051800;28;20094;-53
2020/12/20 11:00:04;;;;;;;5.70;1.17;;;;;;;6.09;78.26;99995.63;5070568;28;20044;-49
2020/12/20 11:02:51;;;;;;;3.38;1.02;;;;;;;6.12;77.95;99994.16;5062824;28;20061;-52
2020/12/20 11:05:44;;;;;;;10.55;2.58;;;;;;;6.14;78.06;100005.66;5077451;28;20076;-51
2020/12/20 11:08:30;;;;;;;5.60;1.30;;;;;;;6.15;77.99;100004.47;5070438;28;20094;-48
2020/12/20 11:11:18;;;;;;;8.27;1.02;;;;;;;6.17;77.80;100004.94;5061622;28;20043;-53
2020/12/20 11:14:05;;;;;;;5.43;1.73;;;;;;;6.19;77.86;100008.19;5061447;28;20781;-50
2020/12/20 11:16:52;;;;;;;4.75;1.08;;;;;;;6.22;77.80;100004.78;5080025;28;20131;-49
2020/12/20 11:19:39;;;;;;;4.57;1.23;;;;;;;6.25;77.66;100006.84;5070393;28;20052;-53
2020/12/20 11:22:25;;;;;;;4.50;1.13;;;;;;;6.25;77.39;100006.84;5074324;28;20044;-51
2020/12/20 11:25:12;;;;;;;4.32;1.08;;;;;;;6.27;77.54;99999.09;5081074;28;20450;-55
2020/12/20 11:27:59;;;;;;;2.05;0.80;;;;;;;6.28;77.38;99995.16;5080705;28;20052;-54
2020/12/20 11:30:47;;;;;;;6.13;1.20;;;;;;;6.30;77.01;99998.38;5069628;28;20052;-58
2020/12/20 11:33:33;;;;;;;4.38;0.90;;;;;;;6.33;77.08;100003.22;5074033;28;20049;-58
2020/12/20 11:36:22;;;;;;;9.50;1.17;;;;;;;6.37;76.96;99997.88;5075620;28;20055;-54
2020/12/20 11:39:11;;;;;;;5.30;0.85;;;;;;;6.39;77.01;100007.38;5086210;28;20056;-58
2020/12/20 11:41:58;;;;;;;11.48;3.35;;;;;;;6.41;76.47;99999.59;5089345;28;20054;-54
2020/12/20 11:44:49;;;;;;;5.85;2.33;;;;;;;6.47;76.72;100003.75;5073987;28;20051;-54
2020/12/20 11:47:39;;;;;;;9.50;2.67;;;;;;;6.51;76.34;100006.66;5069252;28;20056;-56
2020/12/20 11:50:25;;;;;;;4.03;3.03;;;;;;;6.53;76.24;100012.63;5046678;28;20094;-56
2020/12/20 11:53:13;;;;;;;3.05;1.17;;;;;;;6.51;76.15;100004.69;5046728;28;20041;-57
2020/12/20 11:56:00;;;;;;;5.18;1.40;;;;;;;6.51;76.20;100010.19;5038545;28;20053;-50
2020/12/20 11:58:46;;;;;;;6.32;1.95;;;;;;;6.52;76.07;100016.50;5048069;28;20095;-56
2020/12/20 12:01:33;;;;;;;7.55;1.42;;;;;;;6.51;76.03;100015.69;5048810;28;20603;-54
2020/12/20 12:04:19;;;;;;;9.90;2.63;;;;;;;6.53;75.96;100010.69;5035326;28;20411;-50
2020/12/20 12:07:06;;;;;;;10.23;2.47;;;;;;;6.55;75.89;100026.81;5049374;28;20082;-56
2020/12/20 12:09:52;;;;;;;3.92;1.48;;;;;;;6.55;75.78;100027.63;5049731;28;20410;-59
2020/12/20 12:12:39;;;;;;;7.25;2.15;;;;;;;6.56;75.54;100039.44;5036317;28;20170;-51
2020/12/20 12:15:26;;;;;;;8.82;2.88;;;;;;;6.56;75.68;100032.00;5052620;28;20049;-52
2020/12/20 12:18:13;;;;;;;3.75;1.38;;;;;;;6.56;75.55;100042.19;5041360;28;20471;-59
2020/12/20 12:21:00;;;;;;;5.45;1.70;;;;;;;6.55;75.90;100043.34;5053912;28;20056;-51
2020/12/20 12:23:47;;;;;;;2.70;1.38;;;;;;;6.55;75.51;100041.38;5047210;28;20053;-51
2020/12/20 12:26:51;;;;;;;8.13;1.45;;;;;;;6.54;75.39;100031.53;5051888;28;20098;-51
2020/12/20 12:29:39;;;;;;;5.57;0.82;;;;;;;6.56;75.84;100036.69;5049071;28;20096;-54
2020/12/20 12:32:25;;;;;;;5.63;1.73;;;;;;;6.55;75.70;100038.63;5049627;28;20132;-53
2020/12/20 12:35:13;;;;;;;4.05;1.42;;;;;;;6.58;75.56;100032.47;5050721;28;20135;-55
2020/12/20 12:37:59;;;;;;;5.40;1.10;;;;;;;6.60;75.34;100034.88;5052504;28;20068;-52
2020/12/20 12:40:48;;;;;;;7.25;1.60;;;;;;;6.62;75.64;100032.59;5038403;28;20060;-54
2020/12/20 12:43:35;;;;;;;8.18;1.20;;;;;;;6.63;75.61;100034.22;5052434;28;20057;-54
2020/12/20 12:46:22;;;;;;;4.28;0.82;;;;;;;6.61;75.31;100034.56;5051189;28;20067;-54
2020/12/20 12:49:10;;;;;;;6.50;1.77;;;;;;;6.62;75.75;100033.41;5059271;28;20147;-59
2020/12/20 12:51:57;;;;;;;3.55;1.10;;;;;;;6.63;75.61;100046.03;5079457;28;20040;-51
2020/12/20 12:54:44;;;;;;;4.50;0.95;;;;;;;6.65;75.63;100046.47;5052578;28;20567;-52
2020/12/20 12:57:31;;;;;;;4.65;1.20;;;;;;;6.67;75.15;100038.69;5055661;28;20094;-53
2020/12/20 13:00:17;;;;;;;3.25;1.08;;;;;;;6.73;75.72;100034.59;5073095;28;20145;-57
2020/12/20 13:03:04;;;;;;;3.85;1.05;;;;;;;6.78;75.55;100041.06;5055954;28;20094;-53
2020/12/20 13:05:50;;;;;;;3.47;0.90;;;;;;;6.81;75.28;100051.38;5052470;28;20517;-51
2020/12/20 13:08:37;;;;;;;7.72;0.63;;;;;;;6.82;75.49;100064.00;5072380;28;20040;-50
2020/12/20 13:11:27;;;;;;;3.92;0.90;;;;;;;6.80;74.81;100052.53;5050214;28;20190;-50
2020/12/20 13:14:14;;;;;;;5.13;0.95;;;;;;;6.82;75.16;100058.47;5069446;28;20102;-57
2020/12/20 13:17:00;;;;;;;4.07;1.00;;;;;;;6.82;75.09;100058.47;5052193;28;20167;-53
2020/12/20 13:19:47;;;;;;;5.30;1.20;;;;;;;6.85;75.09;100066.06;5065363;28;20186;-50